sensor_id;sensor_type;location;lat;lon;timestamp;P1;durP1;ratioP1;P2;durP2;ratioP2
69795;SDS011;57073;45.650;9.612;2022-07-09T00:01:55;3.10;;;1.90;;
69795;SDS011;57073;45.650;9.612;2022-07-09T00:03:55;4.93;;;1.97;;
69795;SDS011;57073;45.650;9.612;2022-07-09T00:05:55;3.57;;;1.73;;
69795;SDS011;57073;45.650;9.612;2022-07-09T00:07:55;4.97;;;1.77;;
69795;SDS011;57073;45.650;9.612;2022-07-09T00:09:55;4.17;;;1.73;;
69795;SDS011;57073;45.650;9.612;2022-07-09T00:11:56;3.60;;;1.70;;
69795;SDS011;57073;45.650;9.612;2022-07-09T00:13:57;3.30;;;1.90;;
69795;SDS011;57073;45.650;9.612;2022-07-09T00:15:57;2.47;;;1.70;;
69795;SDS011;57073;45.650;9.612;2022-07-09T00:17:58;2.60;;;1.60;;
69795;SDS011;57073;45.650;9.612;2022-07-09T00:19:58;3.00;;;1.60;;
69795;SDS011;57073;45.650;9.612;2022-07-09T00:21:59;2.20;;;1.50;;
69795;SDS011;57073;45.650;9.612;2022-07-09T00:23:59;2.60;;;1.60;;
69795;SDS011;57073;45.650;9.612;2022-07-09T00:25:59;2.27;;;1.60;;
69795;SDS011;57073;45.650;9.612;2022-07-09T00:27:59;2.17;;;1.53;;
69795;SDS011;57073;45.650;9.612;2022-07-09T00:29:59;3.60;;;1.63;;
69795;SDS011;57073;45.650;9.612;2022-07-09T00:32:00;12.43;;;1.90;;
69795;SDS011;57073;45.650;9.612;2022-07-09T00:34:00;2.67;;;1.60;;
69795;SDS011;57073;45.650;9.612;2022-07-09T00:36:00;2.90;;;1.43;;
69795;SDS011;57073;45.650;9.612;2022-07-09T00:38:00;2.63;;;1.60;;
69795;SDS011;57073;45.650;9.612;2022-07-09T00:40:01;3.20;;;1.67;;
69795;SDS011;57073;45.650;9.612;2022-07-09T00:42:10;2.77;;;1.57;;
69795;SDS011;57073;45.650;9.612;2022-07-09T00:44:11;2.35;;;1.45;;
69795;SDS011;57073;45.650;9.612;2022-07-09T00:46:11;3.03;;;1.60;;
69795;SDS011;57073;45.650;9.612;2022-07-09T00:48:12;3.27;;;1.80;;
69795;SDS011;57073;45.650;9.612;2022-07-09T00:50:12;5.15;;;2.20;;
69795;SDS011;57073;45.650;9.612;2022-07-09T00:52:13;4.93;;;2.40;;
69795;SDS011;57073;45.650;9.612;2022-07-09T00:54:14;3.63;;;2.90;;
69795;SDS011;57073;45.650;9.612;2022-07-09T00:56:15;3.70;;;2.50;;
69795;SDS011;57073;45.650;9.612;2022-07-09T00:58:15;4.25;;;2.00;;
69795;SDS011;57073;45.650;9.612;2022-07-09T01:00:16;2.67;;;1.67;;
69795;SDS011;57073;45.650;9.612;2022-07-09T01:02:18;2.90;;;1.63;;
69795;SDS011;57073;45.650;9.612;2022-07-09T01:04:18;3.03;;;1.73;;
69795;SDS011;57073;45.650;9.612;2022-07-09T01:06:18;5.57;;;1.57;;
69795;SDS011;57073;45.650;9.612;2022-07-09T01:08:19;2.97;;;1.67;;
69795;SDS011;57073;45.650;9.612;2022-07-09T01:10:19;2.00;;;1.50;;
69795;SDS011;57073;45.650;9.612;2022-07-09T01:12:19;3.30;;;1.60;;
69795;SDS011;57073;45.650;9.612;2022-07-09T01:14:20;3.17;;;1.70;;
69795;SDS011;57073;45.650;9.612;2022-07-09T01:16:20;3.13;;;1.70;;
69795;SDS011;57073;45.650;9.612;2022-07-09T01:18:20;3.43;;;1.73;;
69795;SDS011;57073;45.650;9.612;2022-07-09T01:20:24;2.90;;;1.30;;
69795;SDS011;57073;45.650;9.612;2022-07-09T01:22:24;2.67;;;1.80;;
69795;SDS011;57073;45.650;9.612;2022-07-09T01:24:25;4.30;;;1.73;;
69795;SDS011;57073;45.650;9.612;2022-07-09T01:26:25;1.77;;;1.27;;
69795;SDS011;57073;45.650;9.612;2022-07-09T01:28:25;4.07;;;1.60;;
69795;SDS011;57073;45.650;9.612;2022-07-09T01:30:27;1.73;;;1.33;;
69795;SDS011;57073;45.650;9.612;2022-07-09T01:32:27;4.22;;;1.70;;
69795;SDS011;57073;45.650;9.612;2022-07-09T01:34:27;2.77;;;1.50;;
69795;SDS011;57073;45.650;9.612;2022-07-09T01:36:28;4.60;;;1.50;;
69795;SDS011;57073;45.650;9.612;2022-07-09T01:38:28;3.50;;;1.40;;
69795;SDS011;57073;45.650;9.612;2022-07-09T01:40:28;2.10;;;1.40;;
69795;SDS011;57073;45.650;9.612;2022-07-09T01:42:28;1.70;;;1.37;;
69795;SDS011;57073;45.650;9.612;2022-07-09T01:44:29;2.57;;;1.40;;
69795;SDS011;57073;45.650;9.612;2022-07-09T01:46:29;3.10;;;1.40;;
69795;SDS011;57073;45.650;9.612;2022-07-09T01:48:29;3.07;;;1.57;;
69795;SDS011;57073;45.650;9.612;2022-07-09T01:50:29;4.67;;;1.60;;
69795;SDS011;57073;45.650;9.612;2022-07-09T01:52:29;2.67;;;1.30;;
69795;SDS011;57073;45.650;9.612;2022-07-09T01:54:30;2.57;;;1.50;;
69795;SDS011;57073;45.650;9.612;2022-07-09T01:56:30;2.63;;;1.30;;
69795;SDS011;57073;45.650;9.612;2022-07-09T01:58:31;2.93;;;1.40;;
69795;SDS011;57073;45.650;9.612;2022-07-09T02:00:31;3.50;;;1.57;;
69795;SDS011;57073;45.650;9.612;2022-07-09T02:02:31;4.00;;;1.43;;
69795;SDS011;57073;45.650;9.612;2022-07-09T02:04:31;1.97;;;1.47;;
69795;SDS011;57073;45.650;9.612;2022-07-09T02:06:32;4.50;;;1.53;;
69795;SDS011;57073;45.650;9.612;2022-07-09T02:08:32;3.17;;;1.47;;
69795;SDS011;57073;45.650;9.612;2022-07-09T02:10:32;1.70;;;1.40;;
69795;SDS011;57073;45.650;9.612;2022-07-09T02:12:32;2.63;;;1.60;;
69795;SDS011;57073;45.650;9.612;2022-07-09T02:14:33;3.67;;;1.67;;
69795;SDS011;57073;45.650;9.612;2022-07-09T02:16:33;2.33;;;1.60;;
69795;SDS011;57073;45.650;9.612;2022-07-09T02:18:33;2.27;;;1.60;;
69795;SDS011;57073;45.650;9.612;2022-07-09T02:20:33;1.67;;;1.37;;
69795;SDS011;57073;45.650;9.612;2022-07-09T02:22:34;3.50;;;1.30;;
69795;SDS011;57073;45.650;9.612;2022-07-09T02:24:34;3.10;;;1.60;;
69795;SDS011;57073;45.650;9.612;2022-07-09T02:26:34;2.30;;;1.50;;
69795;SDS011;57073;45.650;9.612;2022-07-09T02:28:34;3.70;;;1.50;;
69795;SDS011;57073;45.650;9.612;2022-07-09T02:30:34;2.30;;;1.60;;
69795;SDS011;57073;45.650;9.612;2022-07-09T02:32:36;2.58;;;1.48;;
69795;SDS011;57073;45.650;9.612;2022-07-09T02:34:38;2.10;;;1.40;;
69795;SDS011;57073;45.650;9.612;2022-07-09T02:36:38;2.78;;;1.48;;
69795;SDS011;57073;45.650;9.612;2022-07-09T02:38:39;1.80;;;1.40;;
69795;SDS011;57073;45.650;9.612;2022-07-09T02:40:39;4.07;;;1.40;;
69795;SDS011;57073;45.650;9.612;2022-07-09T02:42:40;2.38;;;1.45;;
69795;SDS011;57073;45.650;9.612;2022-07-09T02:44:41;2.70;;;1.70;;
69795;SDS011;57073;45.650;9.612;2022-07-09T02:46:43;2.60;;;1.33;;
69795;SDS011;57073;45.650;9.612;2022-07-09T02:48:43;3.07;;;1.30;;
69795;SDS011;57073;45.650;9.612;2022-07-09T02:50:44;3.00;;;1.20;;
69795;SDS011;57073;45.650;9.612;2022-07-09T02:52:44;1.73;;;1.50;;
69795;SDS011;57073;45.650;9.612;2022-07-09T02:54:45;2.07;;;1.37;;
69795;SDS011;57073;45.650;9.612;2022-07-09T02:56:45;3.33;;;1.50;;
69795;SDS011;57073;45.650;9.612;2022-07-09T02:58:45;2.33;;;1.30;;
69795;SDS011;57073;45.650;9.612;2022-07-09T03:00:45;2.53;;;1.30;;
69795;SDS011;57073;45.650;9.612;2022-07-09T03:02:45;2.80;;;1.33;;
69795;SDS011;57073;45.650;9.612;2022-07-09T03:04:46;2.00;;;1.23;;
69795;SDS011;57073;45.650;9.612;2022-07-09T03:06:46;2.20;;;1.40;;
69795;SDS011;57073;45.650;9.612;2022-07-09T03:08:47;5.30;;;1.60;;
69795;SDS011;57073;45.650;9.612;2022-07-09T03:10:48;2.77;;;1.40;;
69795;SDS011;57073;45.650;9.612;2022-07-09T03:12:49;2.92;;;1.50;;
69795;SDS011;57073;45.650;9.612;2022-07-09T03:14:49;4.20;;;1.27;;
69795;SDS011;57073;45.650;9.612;2022-07-09T03:16:49;2.07;;;1.30;;
69795;SDS011;57073;45.650;9.612;2022-07-09T03:18:50;2.00;;;1.20;;
69795;SDS011;57073;45.650;9.612;2022-07-09T03:20:50;2.07;;;1.50;;
69795;SDS011;57073;45.650;9.612;2022-07-09T03:22:50;2.90;;;1.20;;
69795;SDS011;57073;45.650;9.612;2022-07-09T03:24:51;1.50;;;1.20;;
69795;SDS011;57073;45.650;9.612;2022-07-09T03:26:51;3.13;;;1.20;;
69795;SDS011;57073;45.650;9.612;2022-07-09T03:28:52;1.87;;;1.33;;
69795;SDS011;57073;45.650;9.612;2022-07-09T03:30:52;1.57;;;1.30;;
69795;SDS011;57073;45.650;9.612;2022-07-09T03:32:52;2.07;;;1.40;;
69795;SDS011;57073;45.650;9.612;2022-07-09T03:34:53;2.70;;;1.00;;
69795;SDS011;57073;45.650;9.612;2022-07-09T03:36:53;2.15;;;1.30;;
69795;SDS011;57073;45.650;9.612;2022-07-09T03:38:53;3.13;;;1.10;;
69795;SDS011;57073;45.650;9.612;2022-07-09T03:40:54;3.00;;;1.37;;
69795;SDS011;57073;45.650;9.612;2022-07-09T03:42:54;2.60;;;1.47;;
69795;SDS011;57073;45.650;9.612;2022-07-09T03:44:54;1.80;;;1.37;;
69795;SDS011;57073;45.650;9.612;2022-07-09T03:46:54;2.00;;;1.30;;
69795;SDS011;57073;45.650;9.612;2022-07-09T03:48:54;1.83;;;1.20;;
69795;SDS011;57073;45.650;9.612;2022-07-09T03:50:55;2.30;;;1.60;;
69795;SDS011;57073;45.650;9.612;2022-07-09T03:52:55;2.15;;;1.70;;
69795;SDS011;57073;45.650;9.612;2022-07-09T03:54:56;5.53;;;1.50;;
69795;SDS011;57073;45.650;9.612;2022-07-09T03:56:56;3.17;;;1.27;;
69795;SDS011;57073;45.650;9.612;2022-07-09T03:58:56;2.80;;;1.40;;
69795;SDS011;57073;45.650;9.612;2022-07-09T04:00:56;4.07;;;1.30;;
69795;SDS011;57073;45.650;9.612;2022-07-09T04:02:56;2.57;;;1.20;;
69795;SDS011;57073;45.650;9.612;2022-07-09T04:04:57;2.63;;;1.30;;
69795;SDS011;57073;45.650;9.612;2022-07-09T04:06:57;1.58;;;1.20;;
69795;SDS011;57073;45.650;9.612;2022-07-09T04:08:58;3.57;;;1.40;;
69795;SDS011;57073;45.650;9.612;2022-07-09T04:10:58;1.70;;;1.30;;
69795;SDS011;57073;45.650;9.612;2022-07-09T04:12:58;1.57;;;1.20;;
69795;SDS011;57073;45.650;9.612;2022-07-09T04:14:58;3.83;;;1.50;;
69795;SDS011;57073;45.650;9.612;2022-07-09T04:16:59;2.57;;;1.50;;
69795;SDS011;57073;45.650;9.612;2022-07-09T04:18:59;3.17;;;1.50;;
69795;SDS011;57073;45.650;9.612;2022-07-09T04:20:59;4.33;;;1.47;;
69795;SDS011;57073;45.650;9.612;2022-07-09T04:22:59;3.13;;;1.20;;
69795;SDS011;57073;45.650;9.612;2022-07-09T04:25:00;3.40;;;1.40;;
69795;SDS011;57073;45.650;9.612;2022-07-09T04:27:00;2.03;;;1.40;;
69795;SDS011;57073;45.650;9.612;2022-07-09T04:29:00;1.57;;;1.30;;
69795;SDS011;57073;45.650;9.612;2022-07-09T04:31:00;3.93;;;1.60;;
69795;SDS011;57073;45.650;9.612;2022-07-09T04:33:01;2.37;;;1.50;;
69795;SDS011;57073;45.650;9.612;2022-07-09T04:35:01;2.40;;;1.63;;
69795;SDS011;57073;45.650;9.612;2022-07-09T04:37:01;2.67;;;1.57;;
69795;SDS011;57073;45.650;9.612;2022-07-09T04:39:02;2.07;;;1.30;;
69795;SDS011;57073;45.650;9.612;2022-07-09T04:41:03;3.23;;;1.70;;
69795;SDS011;57073;45.650;9.612;2022-07-09T04:43:03;3.33;;;1.60;;
69795;SDS011;57073;45.650;9.612;2022-07-09T04:45:03;3.00;;;1.60;;
69795;SDS011;57073;45.650;9.612;2022-07-09T04:47:04;2.30;;;1.50;;
69795;SDS011;57073;45.650;9.612;2022-07-09T04:49:04;2.27;;;1.70;;
69795;SDS011;57073;45.650;9.612;2022-07-09T04:51:04;4.47;;;1.93;;
69795;SDS011;57073;45.650;9.612;2022-07-09T04:53:05;3.50;;;1.87;;
69795;SDS011;57073;45.650;9.612;2022-07-09T04:55:07;3.60;;;1.70;;
69795;SDS011;57073;45.650;9.612;2022-07-09T04:57:07;2.23;;;1.83;;
69795;SDS011;57073;45.650;9.612;2022-07-09T04:59:07;6.53;;;1.70;;
69795;SDS011;57073;45.650;9.612;2022-07-09T05:01:08;1.90;;;1.60;;
69795;SDS011;57073;45.650;9.612;2022-07-09T05:03:08;4.17;;;2.10;;
69795;SDS011;57073;45.650;9.612;2022-07-09T05:05:09;2.70;;;1.80;;
69795;SDS011;57073;45.650;9.612;2022-07-09T05:07:09;2.80;;;1.70;;
69795;SDS011;57073;45.650;9.612;2022-07-09T05:09:10;6.10;;;1.80;;
69795;SDS011;57073;45.650;9.612;2022-07-09T05:11:10;3.63;;;1.70;;
69795;SDS011;57073;45.650;9.612;2022-07-09T05:13:10;3.27;;;1.70;;
69795;SDS011;57073;45.650;9.612;2022-07-09T05:15:10;6.83;;;1.90;;
69795;SDS011;57073;45.650;9.612;2022-07-09T05:17:11;6.73;;;1.90;;
69795;SDS011;57073;45.650;9.612;2022-07-09T05:19:11;3.20;;;1.70;;
69795;SDS011;57073;45.650;9.612;2022-07-09T05:21:12;2.47;;;1.58;;
69795;SDS011;57073;45.650;9.612;2022-07-09T05:23:12;3.57;;;1.80;;
69795;SDS011;57073;45.650;9.612;2022-07-09T05:25:12;4.13;;;1.83;;
69795;SDS011;57073;45.650;9.612;2022-07-09T05:27:12;2.80;;;1.70;;
69795;SDS011;57073;45.650;9.612;2022-07-09T05:29:13;3.78;;;1.92;;
69795;SDS011;57073;45.650;9.612;2022-07-09T05:31:13;4.37;;;1.70;;
69795;SDS011;57073;45.650;9.612;2022-07-09T05:33:23;5.13;;;1.60;;
69795;SDS011;57073;45.650;9.612;2022-07-09T05:35:24;2.17;;;1.50;;
69795;SDS011;57073;45.650;9.612;2022-07-09T05:37:25;5.27;;;1.60;;
69795;SDS011;57073;45.650;9.612;2022-07-09T05:39:25;2.17;;;1.77;;
69795;SDS011;57073;45.650;9.612;2022-07-09T05:41:25;4.85;;;1.67;;
69795;SDS011;57073;45.650;9.612;2022-07-09T05:43:25;4.30;;;1.50;;
69795;SDS011;57073;45.650;9.612;2022-07-09T05:45:26;6.83;;;2.00;;
69795;SDS011;57073;45.650;9.612;2022-07-09T05:47:29;9.15;;;1.90;;
69795;SDS011;57073;45.650;9.612;2022-07-09T05:49:49;8.82;;;2.20;;
69795;SDS011;57073;45.650;9.612;2022-07-09T05:51:49;16.27;;;2.60;;
69795;SDS011;57073;45.650;9.612;2022-07-09T05:53:50;9.77;;;2.00;;
69795;SDS011;57073;45.650;9.612;2022-07-09T05:55:50;8.93;;;1.90;;
69795;SDS011;57073;45.650;9.612;2022-07-09T05:57:51;4.63;;;1.60;;
69795;SDS011;57073;45.650;9.612;2022-07-09T05:59:53;4.05;;;1.50;;
69795;SDS011;57073;45.650;9.612;2022-07-09T06:01:53;3.43;;;1.57;;
69795;SDS011;57073;45.650;9.612;2022-07-09T06:03:53;2.83;;;1.47;;
69795;SDS011;57073;45.650;9.612;2022-07-09T06:05:54;5.95;;;1.67;;
69795;SDS011;57073;45.650;9.612;2022-07-09T06:07:54;4.07;;;1.57;;
69795;SDS011;57073;45.650;9.612;2022-07-09T06:09:54;3.13;;;1.80;;
69795;SDS011;57073;45.650;9.612;2022-07-09T06:11:54;3.83;;;1.60;;
69795;SDS011;57073;45.650;9.612;2022-07-09T06:13:55;3.53;;;1.70;;
69795;SDS011;57073;45.650;9.612;2022-07-09T06:15:55;4.10;;;1.87;;
69795;SDS011;57073;45.650;9.612;2022-07-09T06:17:55;3.00;;;1.70;;
69795;SDS011;57073;45.650;9.612;2022-07-09T06:19:56;2.10;;;1.90;;
69795;SDS011;57073;45.650;9.612;2022-07-09T06:21:56;5.07;;;1.85;;
69795;SDS011;57073;45.650;9.612;2022-07-09T06:23:56;4.13;;;1.60;;
69795;SDS011;57073;45.650;9.612;2022-07-09T06:25:56;3.43;;;1.70;;
69795;SDS011;57073;45.650;9.612;2022-07-09T06:27:57;3.03;;;1.90;;
69795;SDS011;57073;45.650;9.612;2022-07-09T06:29:57;3.20;;;2.07;;
69795;SDS011;57073;45.650;9.612;2022-07-09T06:31:57;2.53;;;1.80;;
69795;SDS011;57073;45.650;9.612;2022-07-09T06:34:00;1.95;;;1.60;;
69795;SDS011;57073;45.650;9.612;2022-07-09T06:36:00;2.23;;;1.70;;
69795;SDS011;57073;45.650;9.612;2022-07-09T06:38:01;2.70;;;1.90;;
69795;SDS011;57073;45.650;9.612;2022-07-09T06:40:01;3.47;;;2.10;;
69795;SDS011;57073;45.650;9.612;2022-07-09T06:42:04;4.73;;;1.90;;
69795;SDS011;57073;45.650;9.612;2022-07-09T06:44:05;2.88;;;1.55;;
69795;SDS011;57073;45.650;9.612;2022-07-09T06:46:05;2.20;;;1.43;;
69795;SDS011;57073;45.650;9.612;2022-07-09T06:48:05;1.50;;;1.30;;
69795;SDS011;57073;45.650;9.612;2022-07-09T06:50:06;3.00;;;1.42;;
69795;SDS011;57073;45.650;9.612;2022-07-09T06:52:06;3.50;;;1.43;;
69795;SDS011;57073;45.650;9.612;2022-07-09T06:54:07;2.15;;;1.20;;
69795;SDS011;57073;45.650;9.612;2022-07-09T06:56:07;2.53;;;1.20;;
69795;SDS011;57073;45.650;9.612;2022-07-09T06:58:08;4.53;;;1.30;;
69795;SDS011;57073;45.650;9.612;2022-07-09T07:00:08;2.93;;;1.17;;
69795;SDS011;57073;45.650;9.612;2022-07-09T07:02:09;1.90;;;1.37;;
69795;SDS011;57073;45.650;9.612;2022-07-09T07:04:09;2.20;;;1.70;;
69795;SDS011;57073;45.650;9.612;2022-07-09T07:06:12;3.75;;;1.52;;
69795;SDS011;57073;45.650;9.612;2022-07-09T07:08:12;2.67;;;1.50;;
69795;SDS011;57073;45.650;9.612;2022-07-09T07:10:12;5.07;;;1.57;;
69795;SDS011;57073;45.650;9.612;2022-07-09T07:12:12;1.80;;;1.50;;
69795;SDS011;57073;45.650;9.612;2022-07-09T07:14:12;4.07;;;1.50;;
69795;SDS011;57073;45.650;9.612;2022-07-09T07:16:13;5.23;;;1.47;;
69795;SDS011;57073;45.650;9.612;2022-07-09T07:18:13;2.40;;;1.10;;
69795;SDS011;57073;45.650;9.612;2022-07-09T07:20:14;3.63;;;1.30;;
69795;SDS011;57073;45.650;9.612;2022-07-09T07:22:14;2.30;;;1.25;;
69795;SDS011;57073;45.650;9.612;2022-07-09T07:24:14;3.30;;;1.20;;
69795;SDS011;57073;45.650;9.612;2022-07-09T07:26:15;1.80;;;1.10;;
69795;SDS011;57073;45.650;9.612;2022-07-09T07:28:15;2.67;;;1.30;;
69795;SDS011;57073;45.650;9.612;2022-07-09T07:30:15;2.13;;;1.20;;
69795;SDS011;57073;45.650;9.612;2022-07-09T07:32:16;3.33;;;1.20;;
69795;SDS011;57073;45.650;9.612;2022-07-09T07:34:16;3.13;;;1.50;;
69795;SDS011;57073;45.650;9.612;2022-07-09T07:36:17;2.93;;;1.30;;
69795;SDS011;57073;45.650;9.612;2022-07-09T07:38:18;4.57;;;1.20;;
69795;SDS011;57073;45.650;9.612;2022-07-09T07:40:18;4.10;;;1.20;;
69795;SDS011;57073;45.650;9.612;2022-07-09T07:42:18;3.10;;;1.40;;
69795;SDS011;57073;45.650;9.612;2022-07-09T07:44:19;2.00;;;1.20;;
69795;SDS011;57073;45.650;9.612;2022-07-09T07:46:19;4.57;;;1.23;;
69795;SDS011;57073;45.650;9.612;2022-07-09T07:48:19;4.03;;;1.50;;
69795;SDS011;57073;45.650;9.612;2022-07-09T07:50:20;2.80;;;1.53;;
69795;SDS011;57073;45.650;9.612;2022-07-09T07:52:20;3.08;;;1.30;;
69795;SDS011;57073;45.650;9.612;2022-07-09T07:54:21;4.70;;;1.20;;
69795;SDS011;57073;45.650;9.612;2022-07-09T07:56:21;4.13;;;1.20;;
69795;SDS011;57073;45.650;9.612;2022-07-09T07:58:22;5.80;;;1.45;;
69795;SDS011;57073;45.650;9.612;2022-07-09T08:00:22;3.00;;;1.40;;
69795;SDS011;57073;45.650;9.612;2022-07-09T08:02:22;4.70;;;1.30;;
69795;SDS011;57073;45.650;9.612;2022-07-09T08:04:23;5.60;;;1.50;;
69795;SDS011;57073;45.650;9.612;2022-07-09T08:06:23;2.90;;;1.10;;
69795;SDS011;57073;45.650;9.612;2022-07-09T08:08:23;3.50;;;1.00;;
69795;SDS011;57073;45.650;9.612;2022-07-09T08:10:24;2.90;;;1.30;;
69795;SDS011;57073;45.650;9.612;2022-07-09T08:12:26;3.08;;;1.00;;
69795;SDS011;57073;45.650;9.612;2022-07-09T08:14:26;3.53;;;0.93;;
69795;SDS011;57073;45.650;9.612;2022-07-09T08:16:26;2.50;;;1.00;;
69795;SDS011;57073;45.650;9.612;2022-07-09T08:18:26;1.87;;;1.10;;
69795;SDS011;57073;45.650;9.612;2022-07-09T08:20:27;3.10;;;0.80;;
69795;SDS011;57073;45.650;9.612;2022-07-09T08:22:27;1.43;;;0.97;;
69795;SDS011;57073;45.650;9.612;2022-07-09T08:24:28;2.47;;;1.00;;
69795;SDS011;57073;45.650;9.612;2022-07-09T08:26:28;3.07;;;1.10;;
69795;SDS011;57073;45.650;9.612;2022-07-09T08:28:29;3.42;;;0.90;;
69795;SDS011;57073;45.650;9.612;2022-07-09T08:30:30;1.73;;;1.10;;
69795;SDS011;57073;45.650;9.612;2022-07-09T08:32:30;2.87;;;1.10;;
69795;SDS011;57073;45.650;9.612;2022-07-09T08:34:30;3.53;;;1.00;;
69795;SDS011;57073;45.650;9.612;2022-07-09T08:36:30;1.97;;;1.03;;
69795;SDS011;57073;45.650;9.612;2022-07-09T08:38:31;2.77;;;0.97;;
69795;SDS011;57073;45.650;9.612;2022-07-09T08:40:31;4.77;;;0.90;;
69795;SDS011;57073;45.650;9.612;2022-07-09T08:42:32;3.28;;;1.02;;
69795;SDS011;57073;45.650;9.612;2022-07-09T08:44:32;3.30;;;1.00;;
69795;SDS011;57073;45.650;9.612;2022-07-09T08:46:35;1.60;;;1.00;;
69795;SDS011;57073;45.650;9.612;2022-07-09T08:48:36;1.10;;;0.80;;
69795;SDS011;57073;45.650;9.612;2022-07-09T08:50:36;1.48;;;0.90;;
69795;SDS011;57073;45.650;9.612;2022-07-09T08:52:37;1.93;;;0.80;;
69795;SDS011;57073;45.650;9.612;2022-07-09T08:54:38;1.88;;;0.80;;
69795;SDS011;57073;45.650;9.612;2022-07-09T08:56:42;1.92;;;1.00;;
69795;SDS011;57073;45.650;9.612;2022-07-09T08:58:42;1.83;;;0.90;;
69795;SDS011;57073;45.650;9.612;2022-07-09T09:00:42;2.70;;;1.00;;
69795;SDS011;57073;45.650;9.612;2022-07-09T09:02:42;4.57;;;1.40;;
69795;SDS011;57073;45.650;9.612;2022-07-09T09:04:43;3.85;;;1.00;;
69795;SDS011;57073;45.650;9.612;2022-07-09T09:06:44;1.83;;;0.93;;
69795;SDS011;57073;45.650;9.612;2022-07-09T09:08:44;3.10;;;0.80;;
69795;SDS011;57073;45.650;9.612;2022-07-09T09:10:48;2.15;;;0.80;;
69795;SDS011;57073;45.650;9.612;2022-07-09T09:12:48;2.00;;;0.90;;
69795;SDS011;57073;45.650;9.612;2022-07-09T09:14:50;3.93;;;0.90;;
69795;SDS011;57073;45.650;9.612;2022-07-09T09:16:50;2.17;;;0.70;;
69795;SDS011;57073;45.650;9.612;2022-07-09T09:18:52;0.97;;;0.83;;
69795;SDS011;57073;45.650;9.612;2022-07-09T09:20:52;2.05;;;0.90;;
69795;SDS011;57073;45.650;9.612;2022-07-09T09:22:54;1.83;;;0.80;;
69795;SDS011;57073;45.650;9.612;2022-07-09T09:25:01;1.95;;;0.80;;
69795;SDS011;57073;45.650;9.612;2022-07-09T09:27:01;3.65;;;0.73;;
69795;SDS011;57073;45.650;9.612;2022-07-09T09:29:02;3.17;;;0.93;;
69795;SDS011;57073;45.650;9.612;2022-07-09T09:31:17;1.83;;;0.70;;
69795;SDS011;57073;45.650;9.612;2022-07-09T09:33:17;5.78;;;0.93;;
69795;SDS011;57073;45.650;9.612;2022-07-09T09:35:18;3.28;;;1.10;;
69795;SDS011;57073;45.650;9.612;2022-07-09T09:37:28;3.00;;;0.80;;
69795;SDS011;57073;45.650;9.612;2022-07-09T09:39:29;3.38;;;1.00;;
69795;SDS011;57073;45.650;9.612;2022-07-09T09:41:29;2.67;;;1.00;;
69795;SDS011;57073;45.650;9.612;2022-07-09T09:43:30;2.30;;;0.90;;
69795;SDS011;57073;45.650;9.612;2022-07-09T09:45:32;4.83;;;1.10;;
69795;SDS011;57073;45.650;9.612;2022-07-09T09:47:32;3.10;;;1.05;;
69795;SDS011;57073;45.650;9.612;2022-07-09T09:49:40;2.70;;;1.17;;
69795;SDS011;57073;45.650;9.612;2022-07-09T09:53:50;3.17;;;1.00;;
69795;SDS011;57073;45.650;9.612;2022-07-09T09:55:50;2.13;;;1.05;;
69795;SDS011;57073;45.650;9.612;2022-07-09T09:57:51;2.10;;;1.30;;
69795;SDS011;57073;45.650;9.612;2022-07-09T09:59:51;3.73;;;1.00;;
69795;SDS011;57073;45.650;9.612;2022-07-09T10:01:52;2.70;;;1.10;;
69795;SDS011;57073;45.650;9.612;2022-07-09T10:03:53;3.00;;;1.13;;
69795;SDS011;57073;45.650;9.612;2022-07-09T10:05:53;2.65;;;1.00;;
69795;SDS011;57073;45.650;9.612;2022-07-09T10:07:53;3.10;;;1.00;;
69795;SDS011;57073;45.650;9.612;2022-07-09T10:09:54;3.07;;;0.90;;
69795;SDS011;57073;45.650;9.612;2022-07-09T10:11:55;3.47;;;1.00;;
69795;SDS011;57073;45.650;9.612;2022-07-09T10:13:55;2.47;;;1.00;;
69795;SDS011;57073;45.650;9.612;2022-07-09T10:15:56;1.47;;;0.90;;
69795;SDS011;57073;45.650;9.612;2022-07-09T10:17:56;2.20;;;1.00;;
69795;SDS011;57073;45.650;9.612;2022-07-09T10:20:04;1.75;;;1.00;;
69795;SDS011;57073;45.650;9.612;2022-07-09T10:22:04;4.03;;;1.20;;
69795;SDS011;57073;45.650;9.612;2022-07-09T10:24:07;2.00;;;1.00;;
69795;SDS011;57073;45.650;9.612;2022-07-09T10:26:08;3.15;;;1.17;;
69795;SDS011;57073;45.650;9.612;2022-07-09T10:28:14;2.50;;;1.00;;
69795;SDS011;57073;45.650;9.612;2022-07-09T10:30:28;2.40;;;1.25;;
69795;SDS011;57073;45.650;9.612;2022-07-09T10:32:29;4.72;;;1.20;;
69795;SDS011;57073;45.650;9.612;2022-07-09T10:34:51;2.50;;;1.10;;
69795;SDS011;57073;45.650;9.612;2022-07-09T10:36:59;1.65;;;1.08;;
69795;SDS011;57073;45.650;9.612;2022-07-09T10:39:00;1.30;;;1.10;;
69795;SDS011;57073;45.650;9.612;2022-07-09T10:41:00;3.00;;;1.00;;
69795;SDS011;57073;45.650;9.612;2022-07-09T10:43:02;2.97;;;1.45;;
69795;SDS011;57073;45.650;9.612;2022-07-09T10:45:02;3.40;;;1.20;;
69795;SDS011;57073;45.650;9.612;2022-07-09T10:47:04;2.40;;;1.33;;
69795;SDS011;57073;45.650;9.612;2022-07-09T10:49:05;2.15;;;1.02;;
69795;SDS011;57073;45.650;9.612;2022-07-09T10:51:06;7.47;;;1.52;;
69795;SDS011;57073;45.650;9.612;2022-07-09T10:53:07;1.70;;;1.00;;
69795;SDS011;57073;45.650;9.612;2022-07-09T10:55:08;4.37;;;1.20;;
69795;SDS011;57073;45.650;9.612;2022-07-09T10:57:08;1.65;;;1.13;;
69795;SDS011;57073;45.650;9.612;2022-07-09T10:59:08;3.00;;;1.00;;
69795;SDS011;57073;45.650;9.612;2022-07-09T11:01:08;1.73;;;1.07;;
69795;SDS011;57073;45.650;9.612;2022-07-09T11:03:09;2.30;;;1.00;;
69795;SDS011;57073;45.650;9.612;2022-07-09T11:05:09;3.63;;;1.17;;
69795;SDS011;57073;45.650;9.612;2022-07-09T11:07:10;3.65;;;1.20;;
69795;SDS011;57073;45.650;9.612;2022-07-09T11:09:18;1.60;;;1.00;;
69795;SDS011;57073;45.650;9.612;2022-07-09T11:11:21;2.40;;;1.13;;
69795;SDS011;57073;45.650;9.612;2022-07-09T11:13:22;7.80;;;1.30;;
69795;SDS011;57073;45.650;9.612;2022-07-09T11:15:23;1.20;;;1.00;;
69795;SDS011;57073;45.650;9.612;2022-07-09T11:17:23;2.50;;;1.20;;
69795;SDS011;57073;45.650;9.612;2022-07-09T11:19:23;2.90;;;1.40;;
69795;SDS011;57073;45.650;9.612;2022-07-09T11:21:25;1.75;;;1.10;;
69795;SDS011;57073;45.650;9.612;2022-07-09T11:23:25;2.22;;;1.02;;
69795;SDS011;57073;45.650;9.612;2022-07-09T11:25:26;1.30;;;1.20;;
69795;SDS011;57073;45.650;9.612;2022-07-09T11:27:26;2.40;;;1.03;;
69795;SDS011;57073;45.650;9.612;2022-07-09T11:29:27;2.30;;;1.13;;
69795;SDS011;57073;45.650;9.612;2022-07-09T11:31:27;3.63;;;1.50;;
69795;SDS011;57073;45.650;9.612;2022-07-09T11:33:28;1.90;;;1.40;;
69795;SDS011;57073;45.650;9.612;2022-07-09T11:35:48;3.53;;;1.00;;
69795;SDS011;57073;45.650;9.612;2022-07-09T11:37:49;1.80;;;1.20;;
69795;SDS011;57073;45.650;9.612;2022-07-09T11:39:52;3.67;;;1.30;;
69795;SDS011;57073;45.650;9.612;2022-07-09T11:41:53;2.88;;;1.20;;
69795;SDS011;57073;45.650;9.612;2022-07-09T11:43:53;3.00;;;1.30;;
69795;SDS011;57073;45.650;9.612;2022-07-09T11:45:54;2.53;;;1.20;;
69795;SDS011;57073;45.650;9.612;2022-07-09T11:48:04;1.85;;;1.20;;
69795;SDS011;57073;45.650;9.612;2022-07-09T11:50:05;2.22;;;1.10;;
69795;SDS011;57073;45.650;9.612;2022-07-09T11:52:25;3.50;;;1.10;;
69795;SDS011;57073;45.650;9.612;2022-07-09T11:54:26;5.00;;;1.40;;
69795;SDS011;57073;45.650;9.612;2022-07-09T11:56:27;4.40;;;1.38;;
69795;SDS011;57073;45.650;9.612;2022-07-09T11:58:27;2.80;;;1.43;;
69795;SDS011;57073;45.650;9.612;2022-07-09T12:00:28;1.90;;;1.30;;
69795;SDS011;57073;45.650;9.612;2022-07-09T12:04:29;5.73;;;1.20;;
69795;SDS011;57073;45.650;9.612;2022-07-09T12:06:30;2.85;;;1.20;;
69795;SDS011;57073;45.650;9.612;2022-07-09T12:08:31;2.10;;;1.33;;
69795;SDS011;57073;45.650;9.612;2022-07-09T12:10:32;2.93;;;1.20;;
69795;SDS011;57073;45.650;9.612;2022-07-09T12:12:33;2.97;;;1.00;;
69795;SDS011;57073;45.650;9.612;2022-07-09T12:14:34;2.63;;;1.42;;